sensor_id;sensor_type;location;lat;lon;timestamp;P1;durP1;ratioP1;P2;durP2;ratioP2
10896;SDS011;5501;51.176;6.470;2022-10-16T00:02:46;2.17;;;1.73;;
10896;SDS011;5501;51.176;6.470;2022-10-16T00:07:48;4.53;;;2.00;;
10896;SDS011;5501;51.176;6.470;2022-10-16T00:12:49;4.10;;;1.90;;
10896;SDS011;5501;51.176;6.470;2022-10-16T00:17:51;3.15;;;1.67;;
10896;SDS011;5501;51.176;6.470;2022-10-16T00:22:52;1.90;;;1.70;;
10896;SDS011;5501;51.176;6.470;2022-10-16T00:27:55;4.30;;;1.40;;
10896;SDS011;5501;51.176;6.470;2022-10-16T00:32:56;1.38;;;1.27;;
10896;SDS011;5501;51.176;6.470;2022-10-16T00:37:58;4.63;;;1.58;;
10896;SDS011;5501;51.176;6.470;2022-10-16T00:42:59;4.18;;;1.35;;
10896;SDS011;5501;51.176;6.470;2022-10-16T00:48:01;2.08;;;1.45;;
10896;SDS011;5501;51.176;6.470;2022-10-16T00:53:02;2.65;;;1.52;;
10896;SDS011;5501;51.176;6.470;2022-10-16T00:58:04;1.70;;;1.10;;
10896;SDS011;5501;51.176;6.470;2022-10-16T01:03:23;2.85;;;1.40;;
10896;SDS011;5501;51.176;6.470;2022-10-16T01:08:30;1.52;;;1.38;;
10896;SDS011;5501;51.176;6.470;2022-10-16T01:13:40;1.65;;;0.93;;
10896;SDS011;5501;51.176;6.470;2022-10-16T01:18:52;2.15;;;1.50;;
10896;SDS011;5501;51.176;6.470;2022-10-16T01:35:01;2.28;;;0.93;;
10896;SDS011;5501;51.176;6.470;2022-10-16T01:40:10;4.20;;;1.15;;
10896;SDS011;5501;51.176;6.470;2022-10-16T01:45:14;2.67;;;1.10;;
10896;SDS011;5501;51.176;6.470;2022-10-16T01:50:19;3.63;;;1.50;;
10896;SDS011;5501;51.176;6.470;2022-10-16T01:55:22;3.53;;;1.02;;
10896;SDS011;5501;51.176;6.470;2022-10-16T02:00:30;0.90;;;0.90;;
10896;SDS011;5501;51.176;6.470;2022-10-16T02:05:34;5.30;;;1.08;;
10896;SDS011;5501;51.176;6.470;2022-10-16T02:10:42;1.20;;;1.10;;
10896;SDS011;5501;51.176;6.470;2022-10-16T02:15:43;3.53;;;0.90;;
10896;SDS011;5501;51.176;6.470;2022-10-16T02:20:48;1.17;;;1.00;;
10896;SDS011;5501;51.176;6.470;2022-10-16T02:25:54;3.63;;;0.97;;
10896;SDS011;5501;51.176;6.470;2022-10-16T02:31:01;0.82;;;0.82;;
10896;SDS011;5501;51.176;6.470;2022-10-16T02:36:05;1.23;;;0.88;;
10896;SDS011;5501;51.176;6.470;2022-10-16T02:41:08;8.02;;;1.13;;
10896;SDS011;5501;51.176;6.470;2022-10-16T02:46:11;0.82;;;0.80;;
10896;SDS011;5501;51.176;6.470;2022-10-16T02:51:12;1.25;;;0.80;;
10896;SDS011;5501;51.176;6.470;2022-10-16T02:56:14;1.48;;;0.90;;
10896;SDS011;5501;51.176;6.470;2022-10-16T03:01:15;1.42;;;0.95;;
10896;SDS011;5501;51.176;6.470;2022-10-16T03:06:18;3.28;;;0.80;;
10896;SDS011;5501;51.176;6.470;2022-10-16T03:11:19;3.15;;;1.08;;
10896;SDS011;5501;51.176;6.470;2022-10-16T03:16:20;1.80;;;0.75;;
10896;SDS011;5501;51.176;6.470;2022-10-16T03:21:22;1.05;;;0.75;;
10896;SDS011;5501;51.176;6.470;2022-10-16T03:26:23;1.13;;;0.77;;
10896;SDS011;5501;51.176;6.470;2022-10-16T03:31:25;1.33;;;0.80;;
10896;SDS011;5501;51.176;6.470;2022-10-16T03:36:27;2.92;;;0.88;;
10896;SDS011;5501;51.176;6.470;2022-10-16T03:41:28;0.80;;;0.80;;
10896;SDS011;5501;51.176;6.470;2022-10-16T03:46:30;0.52;;;0.52;;
10896;SDS011;5501;51.176;6.470;2022-10-16T03:51:31;2.33;;;0.70;;
10896;SDS011;5501;51.176;6.470;2022-10-16T03:56:33;3.30;;;1.27;;
10896;SDS011;5501;51.176;6.470;2022-10-16T04:01:34;2.67;;;0.75;;
10896;SDS011;5501;51.176;6.470;2022-10-16T04:06:36;2.10;;;0.60;;
10896;SDS011;5501;51.176;6.470;2022-10-16T04:11:37;3.28;;;0.70;;
10896;SDS011;5501;51.176;6.470;2022-10-16T04:16:39;1.63;;;0.80;;
10896;SDS011;5501;51.176;6.470;2022-10-16T04:21:40;1.65;;;0.70;;
10896;SDS011;5501;51.176;6.470;2022-10-16T04:26:42;0.65;;;0.65;;
10896;SDS011;5501;51.176;6.470;2022-10-16T04:31:43;1.70;;;0.80;;
10896;SDS011;5501;51.176;6.470;2022-10-16T04:36:46;1.63;;;0.88;;
10896;SDS011;5501;51.176;6.470;2022-10-16T04:41:50;0.70;;;0.70;;
10896;SDS011;5501;51.176;6.470;2022-10-16T04:46:51;0.82;;;0.75;;
10896;SDS011;5501;51.176;6.470;2022-10-16T04:51:53;1.73;;;0.80;;
10896;SDS011;5501;51.176;6.470;2022-10-16T04:56:54;1.13;;;0.80;;
10896;SDS011;5501;51.176;6.470;2022-10-16T05:01:56;1.08;;;0.70;;
10896;SDS011;5501;51.176;6.470;2022-10-16T05:06:57;1.23;;;0.90;;
10896;SDS011;5501;51.176;6.470;2022-10-16T05:11:59;0.80;;;0.80;;
10896;SDS011;5501;51.176;6.470;2022-10-16T05:17:00;2.83;;;0.85;;
10896;SDS011;5501;51.176;6.470;2022-10-16T05:22:02;1.05;;;0.95;;
10896;SDS011;5501;51.176;6.470;2022-10-16T05:27:03;1.25;;;0.95;;
10896;SDS011;5501;51.176;6.470;2022-10-16T05:32:05;1.23;;;0.88;;
10896;SDS011;5501;51.176;6.470;2022-10-16T05:37:06;1.58;;;0.82;;
10896;SDS011;5501;51.176;6.470;2022-10-16T05:42:08;0.93;;;0.93;;
10896;SDS011;5501;51.176;6.470;2022-10-16T05:47:09;0.98;;;0.95;;
10896;SDS011;5501;51.176;6.470;2022-10-16T05:52:11;1.85;;;1.15;;
10896;SDS011;5501;51.176;6.470;2022-10-16T05:57:13;0.70;;;0.60;;
10896;SDS011;5501;51.176;6.470;2022-10-16T06:02:16;3.50;;;1.15;;
10896;SDS011;5501;51.176;6.470;2022-10-16T06:07:17;1.75;;;1.20;;
10896;SDS011;5501;51.176;6.470;2022-10-16T06:12:19;2.42;;;1.15;;
10896;SDS011;5501;51.176;6.470;2022-10-16T06:17:21;3.85;;;1.65;;
10896;SDS011;5501;51.176;6.470;2022-10-16T06:22:22;3.75;;;1.70;;
10896;SDS011;5501;51.176;6.470;2022-10-16T06:27:24;1.60;;;1.50;;
10896;SDS011;5501;51.176;6.470;2022-10-16T06:32:27;2.30;;;1.70;;
10896;SDS011;5501;51.176;6.470;2022-10-16T06:37:28;2.33;;;1.92;;
10896;SDS011;5501;51.176;6.470;2022-10-16T06:42:30;3.88;;;1.80;;
10896;SDS011;5501;51.176;6.470;2022-10-16T06:47:31;2.15;;;1.33;;
10896;SDS011;5501;51.176;6.470;2022-10-16T06:52:33;1.85;;;1.60;;
10896;SDS011;5501;51.176;6.470;2022-10-16T06:57:35;3.70;;;1.60;;
10896;SDS011;5501;51.176;6.470;2022-10-16T07:02:36;1.30;;;1.20;;
10896;SDS011;5501;51.176;6.470;2022-10-16T07:07:38;2.30;;;1.40;;
10896;SDS011;5501;51.176;6.470;2022-10-16T07:12:39;1.30;;;1.20;;
10896;SDS011;5501;51.176;6.470;2022-10-16T07:17:41;2.60;;;1.20;;
10896;SDS011;5501;51.176;6.470;2022-10-16T07:22:42;1.48;;;1.38;;
10896;SDS011;5501;51.176;6.470;2022-10-16T07:27:44;2.50;;;1.80;;
10896;SDS011;5501;51.176;6.470;2022-10-16T07:32:45;1.55;;;1.35;;
10896;SDS011;5501;51.176;6.470;2022-10-16T07:37:46;2.35;;;1.38;;
10896;SDS011;5501;51.176;6.470;2022-10-16T07:42:48;3.53;;;1.50;;
10896;SDS011;5501;51.176;6.470;2022-10-16T07:47:49;2.67;;;1.30;;
10896;SDS011;5501;51.176;6.470;2022-10-16T07:52:51;1.52;;;1.30;;
10896;SDS011;5501;51.176;6.470;2022-10-16T07:57:53;2.50;;;1.50;;
10896;SDS011;5501;51.176;6.470;2022-10-16T08:02:56;3.38;;;1.52;;
10896;SDS011;5501;51.176;6.470;2022-10-16T08:08:01;1.60;;;1.50;;
10896;SDS011;5501;51.176;6.470;2022-10-16T08:13:03;2.22;;;1.30;;
10896;SDS011;5501;51.176;6.470;2022-10-16T08:18:05;1.65;;;1.40;;
10896;SDS011;5501;51.176;6.470;2022-10-16T08:23:06;1.20;;;1.08;;
10896;SDS011;5501;51.176;6.470;2022-10-16T08:28:10;3.05;;;1.35;;
10896;SDS011;5501;51.176;6.470;2022-10-16T08:33:12;1.52;;;1.20;;
10896;SDS011;5501;51.176;6.470;2022-10-16T08:38:13;1.58;;;1.00;;
10896;SDS011;5501;51.176;6.470;2022-10-16T08:43:25;3.50;;;1.27;;
10896;SDS011;5501;51.176;6.470;2022-10-16T08:53:52;1.08;;;0.90;;
10896;SDS011;5501;51.176;6.470;2022-10-16T08:58:57;1.88;;;1.00;;
10896;SDS011;5501;51.176;6.470;2022-10-16T09:15:17;1.58;;;0.73;;
10896;SDS011;5501;51.176;6.470;2022-10-16T09:20:32;2.00;;;0.88;;
10896;SDS011;5501;51.176;6.470;2022-10-16T09:25:42;1.63;;;0.70;;
10896;SDS011;5501;51.176;6.470;2022-10-16T09:30:46;2.90;;;0.75;;
10896;SDS011;5501;51.176;6.470;2022-10-16T09:35:51;1.38;;;0.73;;
10896;SDS011;5501;51.176;6.470;2022-10-16T09:40:59;6.68;;;1.00;;
10896;SDS011;5501;51.176;6.470;2022-10-16T09:46:04;2.70;;;0.85;;
10896;SDS011;5501;51.176;6.470;2022-10-16T09:51:14;2.92;;;0.70;;
10896;SDS011;5501;51.176;6.470;2022-10-16T09:56:21;2.45;;;1.13;;
10896;SDS011;5501;51.176;6.470;2022-10-16T10:01:28;2.67;;;0.77;;
10896;SDS011;5501;51.176;6.470;2022-10-16T10:06:33;2.20;;;0.68;;
10896;SDS011;5501;51.176;6.470;2022-10-16T10:16:45;2.47;;;0.77;;
10896;SDS011;5501;51.176;6.470;2022-10-16T10:21:48;2.08;;;0.88;;
10896;SDS011;5501;51.176;6.470;2022-10-16T10:32:17;0.60;;;0.60;;
10896;SDS011;5501;51.176;6.470;2022-10-16T10:53:18;5.10;;;0.93;;
10896;SDS011;5501;51.176;6.470;2022-10-16T10:58:29;3.05;;;0.70;;
10896;SDS011;5501;51.176;6.470;2022-10-16T11:09:51;3.85;;;0.95;;
10896;SDS011;5501;51.176;6.470;2022-10-16T11:15:00;1.42;;;0.50;;
10896;SDS011;5501;51.176;6.470;2022-10-16T11:25:21;1.15;;;0.65;;
10896;SDS011;5501;51.176;6.470;2022-10-16T11:30:27;2.67;;;0.80;;
10896;SDS011;5501;51.176;6.470;2022-10-16T11:40:40;1.42;;;0.65;;
10896;SDS011;5501;51.176;6.470;2022-10-16T11:45:49;4.23;;;0.80;;
10896;SDS011;5501;51.176;6.470;2022-10-16T11:50:56;1.35;;;0.63;;
10896;SDS011;5501;51.176;6.470;2022-10-16T11:56:01;1.92;;;0.88;;
10896;SDS011;5501;51.176;6.470;2022-10-16T12:01:15;2.20;;;1.10;;
10896;SDS011;5501;51.176;6.470;2022-10-16T12:06:36;1.33;;;0.77;;
10896;SDS011;5501;51.176;6.470;2022-10-16T12:11:44;1.50;;;0.73;;
10896;SDS011;5501;51.176;6.470;2022-10-16T12:22:03;1.55;;;0.65;;
10896;SDS011;5501;51.176;6.470;2022-10-16T12:27:06;0.57;;;0.57;;
10896;SDS011;5501;51.176;6.470;2022-10-16T12:32:33;1.58;;;0.80;;
10896;SDS011;5501;51.176;6.470;2022-10-16T12:37:52;4.03;;;0.88;;
10896;SDS011;5501;51.176;6.470;2022-10-16T12:42:54;1.90;;;0.82;;
10896;SDS011;5501;51.176;6.470;2022-10-16T12:47:55;0.95;;;0.77;;
10896;SDS011;5501;51.176;6.470;2022-10-16T12:52:57;4.60;;;0.70;;
10896;SDS011;5501;51.176;6.470;2022-10-16T13:03:58;2.25;;;0.90;;
10896;SDS011;5501;51.176;6.470;2022-10-16T13:24:54;2.53;;;0.90;;
10896;SDS011;5501;51.176;6.470;2022-10-16T13:35:24;0.77;;;0.45;;
10896;SDS011;5501;51.176;6.470;2022-10-16T13:40:28;1.63;;;0.57;;
10896;SDS011;5501;51.176;6.470;2022-10-16T13:45:29;1.15;;;0.90;;
10896;SDS011;5501;51.176;6.470;2022-10-16T13:50:31;1.52;;;0.63;;
10896;SDS011;5501;51.176;6.470;2022-10-16T13:55:32;0.60;;;0.60;;
10896;SDS011;5501;51.176;6.470;2022-10-16T14:00:34;2.50;;;0.50;;
10896;SDS011;5501;51.176;6.470;2022-10-16T14:05:36;0.90;;;0.57;;
10896;SDS011;5501;51.176;6.470;2022-10-16T14:10:55;3.15;;;1.20;;
10896;SDS011;5501;51.176;6.470;2022-10-16T14:15:59;0.50;;;0.47;;
10896;SDS011;5501;51.176;6.470;2022-10-16T14:21:06;1.33;;;0.40;;
10896;SDS011;5501;51.176;6.470;2022-10-16T14:26:14;0.20;;;0.20;;
10896;SDS011;5501;51.176;6.470;2022-10-16T14:36:25;0.55;;;0.43;;
10896;SDS011;5501;51.176;6.470;2022-10-16T14:41:30;0.98;;;0.70;;
10896;SDS011;5501;51.176;6.470;2022-10-16T14:46:37;0.82;;;0.60;;
10896;SDS011;5501;51.176;6.470;2022-10-16T14:51:41;1.85;;;0.60;;
10896;SDS011;5501;51.176;6.470;2022-10-16T15:01:48;0.52;;;0.47;;
10896;SDS011;5501;51.176;6.470;2022-10-16T15:06:50;0.60;;;0.60;;
10896;SDS011;5501;51.176;6.470;2022-10-16T15:11:52;0.90;;;0.75;;
10896;SDS011;5501;51.176;6.470;2022-10-16T15:16:53;2.88;;;1.63;;
10896;SDS011;5501;51.176;6.470;2022-10-16T15:21:55;0.93;;;0.73;;
10896;SDS011;5501;51.176;6.470;2022-10-16T15:26:57;1.05;;;0.60;;
10896;SDS011;5501;51.176;6.470;2022-10-16T15:31:58;0.70;;;0.70;;
10896;SDS011;5501;51.176;6.470;2022-10-16T15:37:02;1.63;;;0.63;;
10896;SDS011;5501;51.176;6.470;2022-10-16T15:42:04;0.88;;;0.70;;
10896;SDS011;5501;51.176;6.470;2022-10-16T15:47:07;1.23;;;0.70;;
10896;SDS011;5501;51.176;6.470;2022-10-16T15:52:09;1.10;;;1.00;;
10896;SDS011;5501;51.176;6.470;2022-10-16T15:57:10;1.38;;;0.85;;
10896;SDS011;5501;51.176;6.470;2022-10-16T16:02:12;0.60;;;0.60;;
10896;SDS011;5501;51.176;6.470;2022-10-16T16:07:13;2.35;;;0.75;;
10896;SDS011;5501;51.176;6.470;2022-10-16T16:12:15;0.80;;;0.80;;
10896;SDS011;5501;51.176;6.470;2022-10-16T16:17:17;2.35;;;1.10;;
10896;SDS011;5501;51.176;6.470;2022-10-16T16:22:19;1.90;;;1.05;;
10896;SDS011;5501;51.176;6.470;2022-10-16T16:27:20;1.25;;;0.90;;
10896;SDS011;5501;51.176;6.470;2022-10-16T16:32:22;2.35;;;1.27;;
10896;SDS011;5501;51.176;6.470;2022-10-16T16:37:23;2.92;;;1.60;;
10896;SDS011;5501;51.176;6.470;2022-10-16T16:42:26;2.00;;;1.50;;
10896;SDS011;5501;51.176;6.470;2022-10-16T16:47:28;3.22;;;1.55;;
10896;SDS011;5501;51.176;6.470;2022-10-16T16:52:30;2.05;;;1.58;;
10896;SDS011;5501;51.176;6.470;2022-10-16T16:57:32;2.72;;;1.50;;
10896;SDS011;5501;51.176;6.470;2022-10-16T17:02:33;1.77;;;1.60;;
10896;SDS011;5501;51.176;6.470;2022-10-16T17:07:34;2.47;;;1.92;;
10896;SDS011;5501;51.176;6.470;2022-10-16T17:12:36;2.50;;;1.27;;
10896;SDS011;5501;51.176;6.470;2022-10-16T17:17:38;2.78;;;1.63;;
10896;SDS011;5501;51.176;6.470;2022-10-16T17:22:39;3.03;;;1.30;;
10896;SDS011;5501;51.176;6.470;2022-10-16T17:27:41;1.70;;;1.15;;
10896;SDS011;5501;51.176;6.470;2022-10-16T17:32:43;1.73;;;1.30;;
10896;SDS011;5501;51.176;6.470;2022-10-16T17:37:44;5.82;;;2.58;;
10896;SDS011;5501;51.176;6.470;2022-10-16T17:42:45;1.50;;;1.30;;
10896;SDS011;5501;51.176;6.470;2022-10-16T17:47:48;3.53;;;1.90;;
10896;SDS011;5501;51.176;6.470;2022-10-16T17:52:50;5.05;;;1.77;;
10896;SDS011;5501;51.176;6.470;2022-10-16T17:57:51;2.20;;;1.70;;
10896;SDS011;5501;51.176;6.470;2022-10-16T18:02:53;3.55;;;2.00;;
10896;SDS011;5501;51.176;6.470;2022-10-16T18:07:55;4.63;;;2.08;;
10896;SDS011;5501;51.176;6.470;2022-10-16T18:12:56;2.72;;;2.17;;
10896;SDS011;5501;51.176;6.470;2022-10-16T18:17:57;3.35;;;2.40;;
10896;SDS011;5501;51.176;6.470;2022-10-16T18:22:59;3.65;;;2.60;;
10896;SDS011;5501;51.176;6.470;2022-10-16T18:28:00;3.08;;;2.20;;
10896;SDS011;5501;51.176;6.470;2022-10-16T18:33:02;2.25;;;1.65;;
10896;SDS011;5501;51.176;6.470;2022-10-16T18:38:05;4.88;;;1.77;;
10896;SDS011;5501;51.176;6.470;2022-10-16T18:43:07;2.95;;;2.05;;
10896;SDS011;5501;51.176;6.470;2022-10-16T18:48:08;5.90;;;3.03;;
10896;SDS011;5501;51.176;6.470;2022-10-16T18:53:09;5.72;;;3.42;;
10896;SDS011;5501;51.176;6.470;2022-10-16T18:58:11;5.22;;;3.38;;
10896;SDS011;5501;51.176;6.470;2022-10-16T19:03:12;10.85;;;2.85;;
10896;SDS011;5501;51.176;6.470;2022-10-16T19:08:14;4.45;;;2.33;;
10896;SDS011;5501;51.176;6.470;2022-10-16T19:13:16;4.57;;;2.75;;
10896;SDS011;5501;51.176;6.470;2022-10-16T19:18:17;7.72;;;3.00;;
10896;SDS011;5501;51.176;6.470;2022-10-16T19:23:26;5.80;;;2.65;;
10896;SDS011;5501;51.176;6.470;2022-10-16T19:28:28;3.58;;;2.70;;
10896;SDS011;5501;51.176;6.470;2022-10-16T19:33:30;4.53;;;2.90;;
10896;SDS011;5501;51.176;6.470;2022-10-16T19:38:32;5.65;;;2.75;;
10896;SDS011;5501;51.176;6.470;2022-10-16T19:43:33;6.40;;;2.88;;
10896;SDS011;5501;51.176;6.470;2022-10-16T19:48:35;4.25;;;2.95;;
10896;SDS011;5501;51.176;6.470;2022-10-16T19:53:37;3.03;;;2.72;;
10896;SDS011;5501;51.176;6.470;2022-10-16T19:58:38;4.55;;;3.40;;
10896;SDS011;5501;51.176;6.470;2022-10-16T20:03:43;3.10;;;2.80;;
10896;SDS011;5501;51.176;6.470;2022-10-16T20:08:47;2.95;;;2.65;;
10896;SDS011;5501;51.176;6.470;2022-10-16T20:13:50;4.13;;;2.97;;
10896;SDS011;5501;51.176;6.470;2022-10-16T20:18:51;4.82;;;3.70;;
10896;SDS011;5501;51.176;6.470;2022-10-16T20:23:53;3.58;;;3.03;;
10896;SDS011;5501;51.176;6.470;2022-10-16T20:28:55;4.78;;;3.53;;
10896;SDS011;5501;51.176;6.470;2022-10-16T20:33:57;3.83;;;3.42;;
10896;SDS011;5501;51.176;6.470;2022-10-16T20:39:03;4.72;;;3.33;;
10896;SDS011;5501;51.176;6.470;2022-10-16T20:44:06;6.00;;;3.05;;
10896;SDS011;5501;51.176;6.470;2022-10-16T20:49:07;5.72;;;3.05;;
10896;SDS011;5501;51.176;6.470;2022-10-16T20:54:16;2.83;;;2.63;;
10896;SDS011;5501;51.176;6.470;2022-10-16T20:59:18;2.95;;;2.65;;
10896;SDS011;5501;51.176;6.470;2022-10-16T21:04:19;7.00;;;2.70;;
10896;SDS011;5501;51.176;6.470;2022-10-16T21:09:21;3.10;;;2.70;;
10896;SDS011;5501;51.176;6.470;2022-10-16T21:14:22;3.80;;;3.10;;
10896;SDS011;5501;51.176;6.470;2022-10-16T21:19:24;4.32;;;3.55;;
10896;SDS011;5501;51.176;6.470;2022-10-16T21:24:25;3.40;;;2.92;;
10896;SDS011;5501;51.176;6.470;2022-10-16T21:29:27;5.22;;;2.92;;
10896;SDS011;5501;51.176;6.470;2022-10-16T21:34:28;2.90;;;2.60;;
10896;SDS011;5501;51.176;6.470;2022-10-16T21:39:30;3.90;;;3.08;;
10896;SDS011;5501;51.176;6.470;2022-10-16T21:44:31;4.50;;;2.63;;
10896;SDS011;5501;51.176;6.470;2022-10-16T21:49:32;2.67;;;2.47;;
10896;SDS011;5501;51.176;6.470;2022-10-16T21:54:34;4.03;;;2.90;;
10896;SDS011;5501;51.176;6.470;2022-10-16T21:59:35;2.40;;;2.20;;
10896;SDS011;5501;51.176;6.470;2022-10-16T22:04:37;2.45;;;2.22;;
10896;SDS011;5501;51.176;6.470;2022-10-16T22:09:38;3.00;;;2.42;;
10896;SDS011;5501;51.176;6.470;2022-10-16T22:14:40;5.00;;;2.90;;
10896;SDS011;5501;51.176;6.470;2022-10-16T22:19:41;2.35;;;2.15;;
10896;SDS011;5501;51.176;6.470;2022-10-16T22:24:43;3.03;;;2.63;;
10896;SDS011;5501;51.176;6.470;2022-10-16T22:29:44;2.60;;;2.40;;
10896;SDS011;5501;51.176;6.470;2022-10-16T22:34:46;6.20;;;2.78;;
10896;SDS011;5501;51.176;6.470;2022-10-16T22:39:47;2.80;;;2.53;;
10896;SDS011;5501;51.176;6.470;2022-10-16T22:44:48;2.58;;;2.33;;
10896;SDS011;5501;51.176;6.470;2022-10-16T22:49:50;7.32;;;2.80;;
10896;SDS011;5501;51.176;6.470;2022-10-16T22:54:51;3.97;;;3.05;;
10896;SDS011;5501;51.176;6.470;2022-10-16T22:59:53;4.68;;;3.38;;
10896;SDS011;5501;51.176;6.470;2022-10-16T23:04:54;5.20;;;3.70;;
10896;SDS011;5501;51.176;6.470;2022-10-16T23:09:56;4.03;;;3.20;;
10896;SDS011;5501;51.176;6.470;2022-10-16T23:14:57;4.38;;;3.28;;
10896;SDS011;5501;51.176;6.470;2022-10-16T23:19:58;4.22;;;3.28;;
10896;SDS011;5501;51.176;6.470;2022-10-16T23:25:00;4.13;;;3.72;;
10896;SDS011;5501;51.176;6.470;2022-10-16T23:30:02;4.80;;;3.67;;
10896;SDS011;5501;51.176;6.470;2022-10-16T23:35:04;6.15;;;4.18;;
10896;SDS011;5501;51.176;6.470;2022-10-16T23:40:06;6.95;;;3.80;;
10896;SDS011;5501;51.176;6.470;2022-10-16T23:45:07;5.55;;;4.30;;
10896;SDS011;5501;51.176;6.470;2022-10-16T23:50:09;5.95;;;4.18;;
10896;SDS011;5501;51.176;6.470;2022-10-16T23:55:10;5.05;;;3.53;;
